Time;durP1;ratioP1;P1;durP2;ratioP2;P2;SDS_P1;SDS_P2;PMS_P1;PMS_P2;Temp;Humidity;BMP_temperature;BMP_pressure;BME280_temperature;BME280_humidity;BME280_pressure;Samples;Min_cycle;Max_cycle;Signal;HPM_P1;HPM_P2
2022/05/11 00:00:00;;;;;;;6.45;2.90;;;;;;;16.67;61.03;100633.53;699958;28;1124;-44
2022/05/11 00:00:21;;;;;;;6.03;2.75;;;;;;;16.66;60.55;100631.78;700330;28;1058;-44
2022/05/11 00:00:42;;;;;;;5.90;3.07;;;;;;;16.65;60.40;100633.53;701025;28;1089;-43
2022/05/11 00:01:10;;;;;;;5.80;3.10;;;;;;;16.65;60.42;100628.28;698230;28;1922;-44
2022/05/11 00:01:31;;;;;;;5.38;2.70;;;;;;;16.64;60.79;100629.22;700160;28;5007;-44
2022/05/11 00:01:52;;;;;;;5.75;2.80;;;;;;;16.63;61.07;100630.09;697874;28;1237;-45
2022/05/11 00:02:12;;;;;;;5.03;2.92;;;;;;;16.62;63.31;100628.38;698710;28;862;-46
2022/05/11 00:02:33;;;;;;;5.10;2.90;;;;;;;16.62;63.20;100632.78;697684;28;1059;-44
2022/05/11 00:02:53;;;;;;;5.25;3.05;;;;;;;16.60;62.61;100629.31;699046;28;990;-44
2022/05/11 00:03:14;;;;;;;5.43;3.07;;;;;;;16.58;63.42;100626.72;700856;28;1121;-44
2022/05/11 00:03:34;;;;;;;6.13;2.85;;;;;;;16.58;63.38;100626.72;699130;28;1106;-44
2022/05/11 00:03:56;;;;;;;4.87;2.87;;;;;;;16.58;63.53;100628.53;701486;28;1120;-45
2022/05/11 00:04:17;;;;;;;6.07;2.83;;;;;;;16.56;63.14;100623.28;699839;28;4635;-43
2022/05/11 00:04:38;;;;;;;4.63;2.85;;;;;;;16.55;62.96;100618.91;701825;28;967;-45
2022/05/11 00:04:58;;;;;;;6.40;2.70;;;;;;;16.55;62.56;100624.19;701004;28;1017;-44
2022/05/11 00:05:19;;;;;;;5.75;2.80;;;;;;;16.55;62.07;100628.63;700738;28;1042;-44
2022/05/11 00:05:39;;;;;;;6.83;2.87;;;;;;;16.53;62.03;100620.72;700417;28;1150;-44
2022/05/11 00:06:00;;;;;;;5.80;2.70;;;;;;;16.52;62.47;100619.88;700300;28;1348;-44
2022/05/11 00:06:20;;;;;;;6.28;2.75;;;;;;;16.51;62.70;100617.28;700969;28;1059;-44
2022/05/11 00:06:40;;;;;;;5.70;2.63;;;;;;;16.51;62.76;100622.56;700976;28;1316;-44
2022/05/11 00:07:01;;;;;;;5.43;2.60;;;;;;;16.49;62.44;100619.97;699393;28;1134;-44
2022/05/11 00:07:21;;;;;;;6.13;2.53;;;;;;;16.46;62.01;100617.44;699453;27;4588;-45
2022/05/11 00:07:41;;;;;;;5.37;2.80;;;;;;;16.47;61.27;100626.19;700446;28;905;-43
2022/05/11 00:08:03;;;;;;;4.32;2.78;;;;;;;16.43;60.90;100620.13;700602;28;1320;-44
2022/05/11 00:08:24;;;;;;;5.45;2.70;;;;;;;16.45;62.50;100622.75;700992;28;1049;-43
2022/05/11 00:08:45;;;;;;;5.63;2.57;;;;;;;16.46;62.71;100624.47;701038;28;920;-44
2022/05/11 00:09:07;;;;;;;4.93;2.72;;;;;;;16.46;63.69;100620.06;701952;28;1189;-44
2022/05/11 00:09:27;;;;;;;6.15;2.97;;;;;;;16.49;64.38;100621.72;701687;28;1069;-45
2022/05/11 00:09:48;;;;;;;6.13;3.23;;;;;;;16.49;64.86;100619.09;701019;28;1152;-44
2022/05/11 00:10:12;;;;;;;5.10;2.70;;;;;;;16.49;64.60;100621.72;700222;27;4383;-44
2022/05/11 00:10:33;;;;;;;6.85;2.90;;;;;;;16.48;63.03;100622.66;701424;28;1062;-44
2022/05/11 00:10:54;;;;;;;7.35;3.40;;;;;;;16.46;62.42;100621.81;700297;28;1961;-45
2022/05/11 00:11:14;;;;;;;6.13;3.20;;;;;;;16.46;62.62;100619.19;701584;28;1103;-46
2022/05/11 00:11:36;;;;;;;6.78;2.78;;;;;;;16.45;62.68;100620.13;700208;28;1117;-44
2022/05/11 00:11:56;;;;;;;6.47;2.97;;;;;;;16.44;62.09;100624.50;700524;28;1328;-44
2022/05/11 00:12:17;;;;;;;5.90;2.90;;;;;;;16.43;61.94;100620.13;700567;28;1145;-43
2022/05/11 00:12:39;;;;;;;5.35;2.60;;;;;;;16.41;62.14;100616.69;700427;28;1197;-44
2022/05/11 00:12:59;;;;;;;4.85;2.63;;;;;;;16.40;62.97;100619.38;700085;28;1022;-43
2022/05/11 00:13:19;;;;;;;4.73;2.80;;;;;;;16.40;64.34;100616.75;699824;27;4527;-45
2022/05/11 00:13:40;;;;;;;6.03;3.10;;;;;;;16.38;64.07;100618.53;700986;28;1428;-44
2022/05/11 00:14:01;;;;;;;5.20;2.60;;;;;;;16.38;63.46;100616.78;701108;28;1205;-44
2022/05/11 00:14:21;;;;;;;4.25;2.67;;;;;;;16.36;63.27;100618.59;701435;28;1286;-44
2022/05/11 00:14:41;;;;;;;5.10;2.70;;;;;;;16.34;63.19;100617.78;700105;28;1113;-44
2022/05/11 00:15:05;;;;;;;5.50;3.08;;;;;;;16.33;62.77;100616.06;698029;28;1135;-44
2022/05/11 00:15:26;;;;;;;5.88;3.00;;;;;;;16.32;63.18;100622.22;698505;28;1115;-44
2022/05/11 00:15:46;;;;;;;6.32;3.10;;;;;;;16.30;63.41;100619.66;697699;28;931;-44
2022/05/11 00:16:07;;;;;;;5.57;2.80;;;;;;;16.31;63.46;100615.22;696742;28;4381;-44
2022/05/11 00:16:28;;;;;;;5.57;2.80;;;;;;;16.31;64.92;100618.75;697164;28;1221;-44
2022/05/11 00:16:48;;;;;;;5.60;2.70;;;;;;;16.31;65.44;100621.38;699885;28;3893;-47
2022/05/11 00:17:09;;;;;;;6.63;2.83;;;;;;;16.31;66.21;100616.09;701482;28;1121;-44
2022/05/11 00:17:29;;;;;;;5.93;2.87;;;;;;;16.30;65.33;100619.66;699555;28;1038;-44
2022/05/11 00:17:50;;;;;;;4.78;2.80;;;;;;;16.29;64.48;100620.53;699545;28;1139;-43
2022/05/11 00:18:10;;;;;;;5.43;2.90;;;;;;;16.26;64.31;100617.16;700633;28;1199;-43
2022/05/11 00:18:31;;;;;;;5.70;2.85;;;;;;;16.28;64.02;100610.03;700492;28;1189;-44
2022/05/11 00:18:51;;;;;;;6.37;2.87;;;;;;;16.28;64.99;100610.94;699790;28;969;-44
2022/05/11 00:19:11;;;;;;;5.90;2.88;;;;;;;16.30;65.01;100610.88;700121;28;4434;-44
2022/05/11 00:19:32;;;;;;;5.70;2.90;;;;;;;16.33;65.42;100616.06;700866;28;1210;-44
2022/05/11 00:19:52;;;;;;;5.45;2.78;;;;;;;16.33;64.14;100616.91;700337;28;951;-44
2022/05/11 00:20:15;;;;;;;5.93;2.90;;;;;;;16.31;63.75;100617.84;701174;28;1075;-43
2022/05/11 00:20:37;;;;;;;7.07;2.90;;;;;;;16.31;63.32;100615.22;698987;28;1246;-44
2022/05/11 00:20:58;;;;;;;6.97;2.80;;;;;;;16.31;63.41;100616.09;697618;28;1164;-44
2022/05/11 00:21:18;;;;;;;7.50;2.80;;;;;;;16.30;63.22;100613.50;698624;28;1102;-44
2022/05/11 00:21:39;;;;;;;5.45;2.85;;;;;;;16.30;63.05;100613.50;697248;28;1558;-44
2022/05/11 00:21:59;;;;;;;4.82;2.85;;;;;;;16.29;63.08;100611.78;695928;28;1099;-44
2022/05/11 00:22:19;;;;;;;4.70;2.70;;;;;;;16.29;63.18;100614.41;697509;28;4530;-45
2022/05/11 00:22:40;;;;;;;5.97;2.90;;;;;;;16.27;63.10;100611.84;698448;28;1122;-43
2022/05/11 00:23:00;;;;;;;6.47;2.75;;;;;;;16.26;63.75;100611.88;697948;28;1208;-44
2022/05/11 00:23:21;;;;;;;5.57;2.60;;;;;;;16.25;63.87;100613.63;698455;28;1300;-45
2022/05/11 00:23:41;;;;;;;4.47;2.60;;;;;;;16.23;63.86;100612.81;698346;28;1426;-44
2022/05/11 00:24:02;;;;;;;5.50;2.80;;;;;;;16.23;63.24;100611.97;697889;28;1304;-44
2022/05/11 00:24:22;;;;;;;5.35;3.10;;;;;;;16.21;62.82;100606.72;693194;28;1294;-44
2022/05/11 00:24:42;;;;;;;5.90;3.10;;;;;;;16.23;62.88;100611.97;693241;28;1037;-44
2022/05/11 00:25:06;;;;;;;6.47;2.85;;;;;;;16.21;63.53;100612.00;696848;28;1051;-45
2022/05/11 00:25:28;;;;;;;7.13;3.10;;;;;;;16.20;63.35;100607.66;694704;28;4699;-44
2022/05/11 00:25:48;;;;;;;7.43;2.90;;;;;;;16.20;63.47;100609.41;699211;28;974;-43
2022/05/11 00:26:09;;;;;;;5.77;2.73;;;;;;;16.19;63.65;100610.34;700380;28;1099;-44
2022/05/11 00:26:29;;;;;;;5.43;2.85;;;;;;;16.17;64.52;100608.59;700547;28;1057;-44
2022/05/11 00:26:50;;;;;;;5.70;2.80;;;;;;;16.17;65.80;100610.34;699352;28;1603;-43
2022/05/11 00:27:10;;;;;;;5.13;2.73;;;;;;;16.15;65.85;100605.13;697563;28;1205;-45
2022/05/11 00:27:31;;;;;;;5.37;2.80;;;;;;;16.15;65.19;100609.53;694166;28;1325;-44
2022/05/11 00:27:53;;;;;;;5.22;2.92;;;;;;;16.14;64.66;100613.97;695178;28;1057;-44
2022/05/11 00:28:14;;;;;;;6.18;2.92;;;;;;;16.12;64.38;100607.84;694719;28;4288;-45
2022/05/11 00:28:34;;;;;;;6.88;3.00;;;;;;;16.12;64.48;100604.38;695957;28;1071;-44
2022/05/11 00:28:55;;;;;;;6.00;3.05;;;;;;;16.10;64.26;100601.78;697926;28;916;-44
2022/05/11 00:29:15;;;;;;;5.87;2.90;;;;;;;16.10;64.75;100606.16;698631;28;1161;-44
2022/05/11 00:29:36;;;;;;;6.05;3.00;;;;;;;16.10;64.37;100606.16;700713;28;1058;-44
2022/05/11 00:29:56;;;;;;;5.07;2.85;;;;;;;16.10;64.16;100604.41;697476;28;1333;-44
2022/05/11 00:30:17;;;;;;;6.07;2.70;;;;;;;16.10;64.73;100604.41;699663;28;1276;-44
2022/05/11 00:30:37;;;;;;;6.30;2.70;;;;;;;16.10;65.81;100604.41;697822;28;1134;-44
2022/05/11 00:30:58;;;;;;;5.70;2.75;;;;;;;16.08;65.71;100602.72;697742;28;1918;-44
2022/05/11 00:31:18;;;;;;;5.45;2.95;;;;;;;16.09;65.76;100605.31;697426;28;4545;-43
2022/05/11 00:31:39;;;;;;;6.20;3.00;;;;;;;16.09;65.73;100601.78;697977;28;1078;-44
2022/05/11 00:31:59;;;;;;;5.37;2.77;;;;;;;16.09;65.63;100604.44;699475;28;1211;-44
2022/05/11 00:32:21;;;;;;;5.73;2.80;;;;;;;16.07;65.94;100601.00;698561;28;1796;-45
2022/05/11 00:32:41;;;;;;;6.25;2.95;;;;;;;16.07;66.44;100601.00;695051;28;1405;-45
2022/05/11 00:33:02;;;;;;;6.17;2.90;;;;;;;16.08;66.24;100610.63;694759;28;1320;-44
2022/05/11 00:33:23;;;;;;;5.88;3.00;;;;;;;16.06;66.28;100600.13;698233;28;1224;-45
2022/05/11 00:33:43;;;;;;;5.93;2.83;;;;;;;16.07;66.30;100601.84;698735;28;1020;-44
2022/05/11 00:34:03;;;;;;;6.37;3.10;;;;;;;16.05;66.43;100601.03;698279;28;1070;-45
2022/05/11 00:34:24;;;;;;;6.22;3.00;;;;;;;16.06;65.37;100604.53;699750;28;4255;-44
2022/05/11 00:34:44;;;;;;;5.20;2.90;;;;;;;16.06;65.81;100600.13;700667;28;1771;-43
2022/05/11 00:35:05;;;;;;;5.05;2.90;;;;;;;16.08;66.83;100605.38;700262;28;1154;-44
2022/05/11 00:35:28;;;;;;;5.33;2.93;;;;;;;16.06;67.60;100605.41;700056;28;1071;-46
2022/05/11 00:35:50;;;;;;;5.20;3.30;;;;;;;16.06;66.69;100602.78;698028;28;1038;-44
2022/05/11 00:36:13;;;;;;;6.20;3.00;;;;;;;16.06;66.36;100599.25;701444;28;1115;-43
2022/05/11 00:36:33;;;;;;;5.53;3.00;;;;;;;16.05;66.85;100602.78;699616;28;1928;-44
2022/05/11 00:36:54;;;;;;;6.03;2.97;;;;;;;16.04;66.79;100601.09;699512;28;999;-44
2022/05/11 00:37:14;;;;;;;5.53;2.80;;;;;;;16.04;66.28;100601.09;696411;28;4414;-44
2022/05/11 00:37:34;;;;;;;4.90;2.87;;;;;;;16.06;66.70;100596.63;697530;28;1174;-43
2022/05/11 00:37:55;;;;;;;5.23;3.20;;;;;;;16.08;67.25;100602.72;697781;28;912;-44
2022/05/11 00:38:19;;;;;;;5.55;3.10;;;;;;;16.08;66.84;100597.44;697910;28;903;-44
2022/05/11 00:38:40;;;;;;;5.85;3.10;;;;;;;16.06;67.11;100596.63;700921;28;1255;-44
2022/05/11 00:39:00;;;;;;;4.70;2.90;;;;;;;16.07;66.69;100603.63;695085;28;938;-44
2022/05/11 00:39:20;;;;;;;5.15;3.15;;;;;;;16.07;66.44;100604.47;697327;28;4915;-43
2022/05/11 00:39:41;;;;;;;5.83;3.43;;;;;;;16.07;66.57;100601.00;697569;28;1252;-44
2022/05/11 00:40:01;;;;;;;5.83;3.13;;;;;;;16.07;66.41;100596.56;698158;28;1134;-44
2022/05/11 00:40:23;;;;;;;6.15;3.17;;;;;;;16.07;66.52;100598.34;699302;28;4490;-45
2022/05/11 00:40:57;;;;;;;4.90;2.95;;;;;;;16.08;67.36;100600.09;696749;28;1755;-45
2022/05/11 00:41:18;;;;;;;5.78;3.05;;;;;;;16.07;69.52;100596.56;702147;28;982;-45
2022/05/11 00:41:42;;;;;;;5.30;3.20;;;;;;;16.07;70.65;100595.72;703329;27;1133;-44
2022/05/11 00:42:04;;;;;;;5.10;3.20;;;;;;;16.06;71.72;100594.88;703348;28;934;-45
2022/05/11 00:42:24;;;;;;;5.47;3.10;;;;;;;16.05;71.88;100592.25;701088;28;949;-44
2022/05/11 00:42:45;;;;;;;5.10;3.00;;;;;;;16.04;70.66;100599.31;697619;28;924;-45
2022/05/11 00:43:05;;;;;;;5.53;3.00;;;;;;;16.04;70.30;100595.81;698578;28;4395;-43
2022/05/11 00:43:32;;;;;;;8.27;3.00;;;;;;;16.04;70.66;100591.38;697913;28;1118;-44
2022/05/11 00:43:57;;;;;;;6.45;3.03;;;;;;;16.03;69.90;100591.44;694495;28;1329;-44
2022/05/11 00:44:18;;;;;;;6.75;3.30;;;;;;;16.00;69.11;100595.03;694445;28;1122;-44
2022/05/11 00:44:38;;;;;;;5.57;2.90;;;;;;;15.98;68.80;100586.31;695442;28;1087;-44
2022/05/11 00:44:58;;;;;;;5.70;3.10;;;;;;;15.97;68.53;100595.97;697686;28;1046;-44
2022/05/11 00:45:19;;;;;;;6.07;3.05;;;;;;;15.96;68.18;100594.25;698090;28;1348;-44
2022/05/11 00:45:50;;;;;;;6.55;2.97;;;;;;;15.97;68.44;100590.69;698416;28;1129;-44
2022/05/11 00:46:11;;;;;;;5.65;3.28;;;;;;;15.97;67.86;100592.47;698542;28;4898;-44
2022/05/11 00:46:51;;;;;;;4.87;3.27;;;;;;;15.98;67.83;100596.84;699885;28;1102;-44
2022/05/11 00:47:25;;;;;;;5.22;3.17;;;;;;;15.91;68.14;100596.16;699773;28;1225;-44
2022/05/11 00:47:59;;;;;;;5.68;3.20;;;;;;;15.91;69.54;100585.59;699954;28;1060;-44
2022/05/11 00:49:55;;;;;;;4.93;2.88;;;;;;;15.94;71.04;100589.94;698560;28;4770;-44
2022/05/11 00:50:18;;;;;;;6.07;3.30;;;;;;;15.94;71.68;100588.16;699795;28;1378;-44
2022/05/11 00:50:39;;;;;;;7.25;2.90;;;;;;;15.94;71.41;100593.44;699994;28;1526;-44
2022/05/11 00:50:59;;;;;;;5.68;2.85;;;;;;;15.94;71.17;100584.66;699384;28;1918;-44
2022/05/11 00:51:20;;;;;;;5.83;3.07;;;;;;;15.92;70.80;100589.97;700458;28;1351;-43
2022/05/11 00:51:46;;;;;;;6.85;3.00;;;;;;;15.91;70.39;100585.59;700552;28;1137;-43
2022/05/11 00:52:14;;;;;;;5.40;3.10;;;;;;;15.91;70.13;100590.88;697496;28;4695;-44
2022/05/11 00:52:43;;;;;;;5.82;3.33;;;;;;;15.89;69.20;100591.81;699037;28;1227;-44
2022/05/11 00:53:11;;;;;;;5.78;3.15;;;;;;;15.92;70.38;100586.47;700571;28;1241;-44
2022/05/11 00:53:35;;;;;;;4.97;3.15;;;;;;;15.96;69.88;100590.75;700288;28;1125;-46
2022/05/11 00:53:55;;;;;;;4.70;3.13;;;;;;;15.96;70.87;100589.00;698663;28;1383;-45
2022/05/11 00:54:19;;;;;;;5.40;3.20;;;;;;;15.96;70.30;100589.00;701051;28;1070;-46
2022/05/11 00:54:51;;;;;;;5.57;3.30;;;;;;;15.97;71.88;100580.16;700997;28;1279;-43
2022/05/11 00:55:17;;;;;;;7.03;3.38;;;;;;;15.96;71.72;100588.09;699701;28;4466;-44
2022/05/11 00:55:44;;;;;;;5.68;3.20;;;;;;;15.93;70.42;100583.78;701481;28;1054;-45
2022/05/11 00:56:05;;;;;;;6.60;3.42;;;;;;;15.90;69.96;100583.88;700897;28;1642;-44
2022/05/11 00:56:25;;;;;;;6.00;3.17;;;;;;;15.90;69.48;100583.88;701508;28;1128;-44
2022/05/11 00:56:50;;;;;;;5.85;3.38;;;;;;;15.90;69.37;100578.59;700735;28;1274;-44
2022/05/11 00:57:17;;;;;;;7.00;3.30;;;;;;;15.90;69.20;100580.38;699091;28;1142;-43
2022/05/11 00:58:09;;;;;;;6.55;3.30;;;;;;;15.87;68.62;100576.06;698674;28;1893;-44
2022/05/11 00:58:38;;;;;;;6.40;3.40;;;;;;;15.89;70.63;100576.88;690836;28;4766;-44
2022/05/11 00:59:09;;;;;;;5.53;3.30;;;;;;;15.90;71.77;100573.31;699258;28;974;-43
2022/05/11 00:59:36;;;;;;;6.30;3.50;;;;;;;15.89;72.77;100581.28;701544;28;1054;-45
2022/05/11 00:59:58;;;;;;;5.90;3.40;;;;;;;15.88;73.02;100575.16;701031;28;1260;-45
2022/05/11 01:00:21;;;;;;;6.60;3.33;;;;;;;15.86;72.39;100574.31;702020;28;1328;-44
2022/05/11 01:00:45;;;;;;;6.22;3.40;;;;;;;15.85;71.33;100575.22;700899;28;1063;-43
2022/05/11 01:01:07;;;;;;;6.15;3.40;;;;;;;15.85;71.78;100584.91;700365;28;4642;-45
2022/05/11 01:01:27;;;;;;;6.28;3.10;;;;;;;15.87;72.01;100576.06;700150;28;1197;-43
2022/05/11 01:01:48;;;;;;;6.60;3.30;;;;;;;15.85;72.56;100569.09;700253;28;989;-44
2022/05/11 01:02:08;;;;;;;6.70;3.30;;;;;;;15.83;72.06;100577.06;698257;28;997;-44
2022/05/11 01:02:29;;;;;;;5.67;3.20;;;;;;;15.83;72.14;100572.63;701019;28;1102;-47
2022/05/11 01:02:56;;;;;;;5.33;3.27;;;;;;;15.82;72.63;100580.59;699886;28;1237;-43
2022/05/11 01:03:21;;;;;;;5.90;3.38;;;;;;;15.82;72.67;100570.94;700340;28;1094;-43
2022/05/11 01:03:48;;;;;;;7.13;3.35;;;;;;;15.81;71.20;100569.19;699419;28;1201;-43
2022/05/11 01:04:15;;;;;;;6.40;3.17;;;;;;;15.78;70.88;100578.91;699132;28;4344;-45
2022/05/11 01:04:39;;;;;;;5.43;3.15;;;;;;;15.77;70.89;100577.16;700021;28;1137;-43
2022/05/11 01:05:03;;;;;;;6.25;3.17;;;;;;;15.75;71.13;100574.59;700744;28;1002;-44
2022/05/11 01:05:23;;;;;;;5.57;3.00;;;;;;;15.76;70.80;100572.84;699377;28;1476;-44
2022/05/11 01:05:45;;;;;;;6.53;3.20;;;;;;;15.73;70.28;100572.88;700145;28;933;-43
2022/05/11 01:06:07;;;;;;;6.35;3.25;;;;;;;15.74;70.50;100572.00;701229;28;1537;-44
2022/05/11 01:06:30;;;;;;;5.10;2.83;;;;;;;15.75;72.02;100573.72;700190;28;1026;-46
2022/05/11 01:06:50;;;;;;;6.45;3.10;;;;;;;15.76;72.28;100570.19;701358;28;891;-44
2022/05/11 01:07:13;;;;;;;6.03;3.35;;;;;;;15.76;72.07;100576.31;700159;28;5152;-44
2022/05/11 01:07:34;;;;;;;5.93;3.00;;;;;;;15.78;72.03;100571.00;699708;28;966;-46
2022/05/11 01:07:57;;;;;;;4.40;2.83;;;;;;;15.78;71.45;100569.25;699952;28;1046;-44
2022/05/11 01:08:20;;;;;;;7.20;3.47;;;;;;;15.77;71.69;100564.88;700524;28;975;-43
2022/05/11 01:08:40;;;;;;;5.40;3.33;;;;;;;15.77;72.54;100561.34;700109;28;1157;-43
2022/05/11 01:09:03;;;;;;;5.80;3.20;;;;;;;15.76;72.33;100564.91;700458;28;1315;-43
2022/05/11 01:09:23;;;;;;;5.90;3.00;;;;;;;15.74;72.45;100558.81;700156;28;1359;-44
2022/05/11 01:09:44;;;;;;;5.83;3.10;;;;;;;15.74;73.02;100566.72;701082;28;969;-46
2022/05/11 01:10:07;;;;;;;5.90;3.30;;;;;;;15.74;73.55;100569.34;701116;28;1203;-46
2022/05/11 01:10:32;;;;;;;6.13;3.22;;;;;;;15.73;73.96;100568.50;700461;28;5680;-45
2022/05/11 01:10:52;;;;;;;5.97;3.20;;;;;;;15.73;74.95;100570.25;699174;28;1002;-45
2022/05/11 01:11:13;;;;;;;5.97;3.40;;;;;;;15.70;74.10;100563.31;700808;28;1913;-44
2022/05/11 01:11:44;;;;;;;5.90;3.30;;;;;;;15.70;74.46;100576.50;700836;28;1149;-44
2022/05/11 01:12:09;;;;;;;5.30;3.33;;;;;;;15.65;74.05;100568.69;700850;28;1114;-44
2022/05/11 01:12:39;;;;;;;5.55;3.17;;;;;;;15.61;72.77;100567.06;700302;28;1114;-44
2022/05/11 01:13:04;;;;;;;8.27;3.30;;;;;;;15.59;73.02;100563.63;699431;28;3712;-45
2022/05/11 01:13:24;;;;;;;5.30;3.20;;;;;;;15.57;72.61;100554.88;700460;28;4366;-43
2022/05/11 01:13:46;;;;;;;6.40;3.30;;;;;;;15.56;72.89;100565.47;701579;27;1147;-44
2022/05/11 01:14:10;;;;;;;6.40;3.25;;;;;;;15.55;72.81;100559.34;701267;28;1186;-45
2022/05/11 01:14:34;;;;;;;6.45;3.15;;;;;;;15.56;73.31;100563.72;701560;28;1054;-44
2022/05/11 01:14:57;;;;;;;5.63;3.33;;;;;;;15.60;73.17;100562.72;700721;28;1166;-44
2022/05/11 01:15:19;;;;;;;4.80;2.88;;;;;;;15.62;73.84;100568.78;700896;28;1035;-43
2022/05/11 01:15:42;;;;;;;5.15;2.90;;;;;;;15.64;73.31;100569.59;698373;28;1277;-45
2022/05/11 01:16:03;;;;;;;5.45;3.00;;;;;;;15.68;73.21;100554.59;695463;28;1313;-46
2022/05/11 01:16:26;;;;;;;6.37;3.37;;;;;;;15.70;72.63;100567.72;694275;28;4578;-44
2022/05/11 01:16:48;;;;;;;5.28;3.20;;;;;;;15.71;73.04;100561.53;693236;28;986;-47
2022/05/11 01:17:10;;;;;;;5.55;3.03;;;;;;;15.72;73.21;100564.13;692930;28;1087;-45
2022/05/11 01:17:32;;;;;;;5.43;3.30;;;;;;;15.72;73.45;100558.88;693027;28;1123;-44
2022/05/11 01:17:53;;;;;;;5.50;3.35;;;;;;;15.73;73.91;100564.97;695559;28;1017;-43
2022/05/11 01:18:15;;;;;;;6.35;3.30;;;;;;;15.73;72.91;100557.97;698529;28;1166;-44
2022/05/11 01:18:39;;;;;;;5.68;3.28;;;;;;;15.73;72.91;100559.72;699840;28;1169;-43
2022/05/11 01:19:00;;;;;;;5.97;3.30;;;;;;;15.72;73.10;100558.00;700734;28;1017;-44
2022/05/11 01:19:28;;;;;;;5.57;3.40;;;;;;;15.72;73.33;100558.00;700667;27;5384;-44
2022/05/11 01:19:49;;;;;;;5.28;3.03;;;;;;;15.72;74.28;100558.00;700508;28;903;-44
2022/05/11 01:20:17;;;;;;;5.60;3.13;;;;;;;15.70;75.11;100557.16;700643;28;1062;-44
2022/05/11 01:20:38;;;;;;;6.75;3.40;;;;;;;15.68;75.55;100549.31;701429;28;995;-44
2022/05/11 01:21:02;;;;;;;5.55;3.35;;;;;;;15.68;75.43;100556.38;700292;28;1161;-46
2022/05/11 01:21:25;;;;;;;5.65;3.20;;;;;;;15.65;75.31;100566.06;701203;28;1034;-43
2022/05/11 01:21:54;;;;;;;5.10;3.40;;;;;;;15.63;76.08;100554.72;700769;28;1106;-45
2022/05/11 01:22:39;;;;;;;5.45;3.50;;;;;;;15.61;76.13;100559.16;699649;28;4367;-43
2022/05/11 01:23:13;;;;;;;5.72;3.20;;;;;;;15.59;74.71;100557.47;701067;28;1209;-44
2022/05/11 01:23:46;;;;;;;5.03;3.03;;;;;;;15.59;74.85;100560.97;700703;28;1065;-44
2022/05/11 01:24:35;;;;;;;5.78;3.10;;;;;;;15.55;73.90;100554.06;702149;28;1026;-44
2022/05/11 01:24:56;;;;;;;7.07;3.58;;;;;;;15.56;73.47;100555.81;694421;28;1397;-45
2022/05/11 01:25:18;;;;;;;6.83;3.43;;;;;;;15.57;73.73;100562.78;701100;28;4530;-45
2022/05/11 01:25:38;;;;;;;7.40;3.30;;;;;;;15.56;73.58;100558.44;698414;28;1346;-45
2022/05/11 01:26:03;;;;;;;6.30;3.20;;;;;;;15.54;73.14;100560.22;694717;28;1035;-45
2022/05/11 01:26:23;;;;;;;6.32;3.45;;;;;;;15.53;73.17;100555.84;695067;28;1177;-45
2022/05/11 01:26:44;;;;;;;7.40;3.60;;;;;;;15.52;73.11;100556.78;695110;28;1079;-45
2022/05/11 01:27:28;;;;;;;6.60;3.40;;;;;;;15.52;73.96;100556.78;694695;28;1198;-43
2022/05/11 01:27:49;;;;;;;6.38;3.30;;;;;;;15.50;74.09;100553.31;698903;28;946;-44
2022/05/11 01:28:15;;;;;;;6.37;3.40;;;;;;;15.48;74.04;100556.00;696249;28;4288;-45
2022/05/11 01:28:46;;;;;;;6.75;3.30;;;;;;;15.48;73.98;100549.88;696852;28;1500;-44
2022/05/11 01:29:06;;;;;;;5.95;3.50;;;;;;;15.47;73.96;100558.69;698845;28;1185;-44
2022/05/11 01:29:27;;;;;;;6.53;3.50;;;;;;;15.45;74.46;100555.19;699680;28;1820;-44
2022/05/11 01:29:47;;;;;;;5.55;3.50;;;;;;;15.44;74.89;100551.72;697092;28;1291;-45
2022/05/11 01:30:08;;;;;;;6.47;3.40;;;;;;;15.45;74.78;100557.84;701585;28;1105;-44
2022/05/11 01:30:29;;;;;;;5.47;3.17;;;;;;;15.43;75.56;100546.50;701187;28;879;-44
2022/05/11 01:31:01;;;;;;;6.30;3.40;;;;;;;15.41;76.16;100553.56;701415;28;1017;-45
2022/05/11 01:31:22;;;;;;;6.57;3.20;;;;;;;15.41;75.45;100557.06;699933;28;4279;-44
2022/05/11 01:31:43;;;;;;;5.53;3.30;;;;;;;15.43;74.61;100546.50;701167;28;1077;-45
2022/05/11 01:32:03;;;;;;;5.25;3.20;;;;;;;15.42;74.47;100555.28;701924;28;1073;-45
2022/05/11 01:32:25;;;;;;;5.07;3.33;;;;;;;15.38;74.30;100556.28;700111;28;1114;-44
2022/05/11 01:32:48;;;;;;;5.88;3.38;;;;;;;15.38;74.46;100551.00;701130;28;1244;-44
2022/05/11 01:33:13;;;;;;;7.00;3.80;;;;;;;15.35;74.38;100548.47;700364;28;1075;-44
2022/05/11 01:33:35;;;;;;;6.45;3.35;;;;;;;15.32;74.17;100549.41;700192;28;1030;-44
2022/05/11 01:33:55;;;;;;;5.40;2.95;;;;;;;15.32;74.35;100547.63;700516;28;1053;-44
2022/05/11 01:34:22;;;;;;;5.45;3.35;;;;;;;15.33;75.77;100540.59;699744;27;4272;-46
2022/05/11 01:34:42;;;;;;;5.68;3.40;;;;;;;15.33;76.07;100541.47;699372;28;1237;-45
2022/05/11 01:35:45;;;;;;;5.65;3.33;;;;;;;15.36;77.32;100550.19;698150;28;1149;-43
2022/05/11 01:36:15;;;;;;;6.43;3.38;;;;;;;15.39;76.20;100539.56;699076;28;1359;-44
2022/05/11 01:36:35;;;;;;;6.07;3.50;;;;;;;15.43;75.48;100535.94;699172;28;1089;-44
2022/05/11 01:36:56;;;;;;;4.87;3.30;;;;;;;15.43;75.70;100543.84;701508;28;1103;-44
2022/05/11 01:37:17;;;;;;;5.53;3.30;;;;;;;15.41;75.49;100543.00;701491;27;4344;-44
2022/05/11 01:37:44;;;;;;;5.13;3.20;;;;;;;15.38;75.00;100544.00;700533;28;938;-46
2022/05/11 01:38:26;;;;;;;5.32;3.20;;;;;;;15.32;74.13;100544.13;701361;28;1506;-46
2022/05/11 01:38:49;;;;;;;5.45;3.50;;;;;;;15.28;73.68;100543.34;699288;28;1201;-44
2022/05/11 01:39:10;;;;;;;5.47;3.40;;;;;;;15.27;73.85;100546.00;699766;28;1141;-45
2022/05/11 01:39:30;;;;;;;5.40;3.13;;;;;;;15.27;73.93;100535.47;697350;28;1161;-44
2022/05/11 01:39:50;;;;;;;5.70;3.27;;;;;;;15.26;73.97;100541.69;696849;28;972;-44
2022/05/11 01:40:11;;;;;;;5.63;3.30;;;;;;;15.23;74.41;100539.97;697544;28;4477;-44
2022/05/11 01:40:31;;;;;;;5.43;3.20;;;;;;;15.22;74.16;100542.66;697835;28;1070;-45
2022/05/11 01:40:51;;;;;;;5.43;3.30;;;;;;;15.23;75.05;100537.34;701261;28;1287;-44
2022/05/11 01:41:33;;;;;;;6.35;3.40;;;;;;;15.25;75.93;100538.16;700694;28;1105;-45
2022/05/11 01:41:54;;;;;;;6.10;3.40;;;;;;;15.23;75.31;100539.09;701241;28;890;-45
2022/05/11 01:42:15;;;;;;;6.50;3.38;;;;;;;15.20;74.88;100539.19;701289;28;1179;-44
2022/05/11 01:42:35;;;;;;;5.50;3.40;;;;;;;15.16;74.77;100538.41;701368;28;1224;-44
2022/05/11 01:42:55;;;;;;;5.67;3.33;;;;;;;15.15;74.98;100539.31;701792;28;875;-44
2022/05/11 01:43:20;;;;;;;5.03;3.20;;;;;;;15.13;75.21;100533.22;700725;27;4377;-46
2022/05/11 01:43:41;;;;;;;5.43;3.42;;;;;;;15.13;74.64;100534.09;700922;28;1070;-45
2022/05/11 01:44:04;;;;;;;5.20;3.30;;;;;;;15.14;75.33;100535.81;700675;28;1387;-45
2022/05/11 01:44:25;;;;;;;5.95;3.70;;;;;;;15.17;77.61;100534.84;700374;28;1034;-43
2022/05/11 01:44:45;;;;;;;6.10;3.70;;;;;;;15.18;77.82;100525.22;699900;28;1403;-45
2022/05/11 01:45:06;;;;;;;6.10;3.60;;;;;;;15.19;77.89;100535.69;700817;28;1122;-44
2022/05/11 01:45:26;;;;;;;5.93;3.47;;;;;;;15.21;77.81;100536.50;700850;28;1081;-44
2022/05/11 01:45:47;;;;;;;6.77;3.70;;;;;;;15.23;77.48;100534.72;701309;28;1320;-45
2022/05/11 01:46:08;;;;;;;5.45;3.50;;;;;;;15.24;76.99;100535.56;700184;28;4684;-44
2022/05/11 01:46:29;;;;;;;5.95;3.40;;;;;;;15.26;76.15;100534.63;700324;28;1134;-46
2022/05/11 01:46:56;;;;;;;6.18;3.28;;;;;;;15.29;75.97;100526.63;700532;27;957;-44
2022/05/11 01:47:17;;;;;;;5.20;3.30;;;;;;;15.27;75.76;100528.47;701349;28;1038;-44
2022/05/11 01:47:37;;;;;;;4.82;3.20;;;;;;;15.24;75.48;100531.16;701720;28;1034;-44
2022/05/11 01:47:58;;;;;;;5.33;3.30;;;;;;;15.22;75.60;100535.63;701030;28;1192;-44
2022/05/11 01:48:18;;;;;;;5.75;3.28;;;;;;;15.22;75.54;100527.72;700217;28;1137;-44
2022/05/11 01:48:39;;;;;;;5.57;3.17;;;;;;;15.21;75.57;100528.59;700118;28;1066;-43
2022/05/11 01:48:59;;;;;;;5.82;3.58;;;;;;;15.18;75.41;100525.22;700492;28;1085;-45
2022/05/11 01:49:21;;;;;;;5.23;3.50;;;;;;;15.15;75.96;100528.78;700822;28;4267;-44
2022/05/11 01:49:41;;;;;;;5.70;3.40;;;;;;;15.11;75.74;100524.50;700113;28;1078;-43
2022/05/11 01:50:02;;;;;;;6.68;3.55;;;;;;;15.08;75.57;100522.81;700486;28;831;-44
2022/05/11 01:50:24;;;;;;;5.03;3.30;;;;;;;15.08;75.88;100532.47;702686;28;1220;-44
2022/05/11 01:50:45;;;;;;;5.18;3.20;;;;;;;15.08;78.33;100527.22;700576;28;1109;-44